createdAt,value
2018-06-29T00:00:55.006Z,5.50
2018-06-29T00:03:23.577Z,4.87
2018-06-29T00:05:52.146Z,6.80
2018-06-29T00:08:20.670Z,4.73
2018-06-29T00:10:49.178Z,5.40
2018-06-29T00:13:17.676Z,5.73
2018-06-29T00:15:46.244Z,5.80
2018-06-29T00:18:14.799Z,5.50
2018-06-29T00:20:43.338Z,5.37
2018-06-29T00:23:11.865Z,4.70
2018-06-29T00:25:40.401Z,3.63
2018-06-29T00:28:08.938Z,5.60
2018-06-29T00:30:37.646Z,4.27
2018-06-29T00:33:06.529Z,4.50
2018-06-29T00:35:35.117Z,4.40
2018-06-29T00:38:03.644Z,4.30
2018-06-29T00:40:32.223Z,4.10
2018-06-29T00:43:00.897Z,4.27
2018-06-29T00:45:29.427Z,4.17
2018-06-29T00:47:57.995Z,4.40
2018-06-29T00:50:26.541Z,3.83
2018-06-29T00:52:55.301Z,4.37
2018-06-29T00:55:23.511Z,5.50
2018-06-29T00:57:52.122Z,5.03
2018-06-29T01:00:20.657Z,5.07
2018-06-29T01:02:49.210Z,4.40
2018-06-29T01:05:17.751Z,4.87
2018-06-29T01:07:46.255Z,6.80
2018-06-29T01:10:14.840Z,5.40
2018-06-29T01:12:43.393Z,4.73
2018-06-29T01:15:12.043Z,5.30
2018-06-29T01:17:40.577Z,4.53
2018-06-29T01:20:09.120Z,5.50
2018-06-29T01:22:37.643Z,4.80
2018-06-29T01:25:06.174Z,5.40
2018-06-29T01:27:34.736Z,5.63
2018-06-29T01:30:03.310Z,5.37
2018-06-29T01:32:31.891Z,5.20
2018-06-29T01:35:00.447Z,4.77
2018-06-29T01:37:29.021Z,4.67
2018-06-29T01:39:57.605Z,4.83
2018-06-29T01:42:26.141Z,3.83
2018-06-29T01:44:54.671Z,4.93
2018-06-29T01:47:23.197Z,4.60
2018-06-29T01:49:51.724Z,4.87
2018-06-29T01:52:20.295Z,4.50
2018-06-29T01:54:48.834Z,4.80
2018-06-29T01:57:17.397Z,4.00
2018-06-29T01:59:45.948Z,3.53
2018-06-29T02:02:14.499Z,3.80
2018-06-29T02:04:43.053Z,3.53
2018-06-29T02:07:11.551Z,3.30
2018-06-29T02:09:40.137Z,4.00
2018-06-29T02:12:10.438Z,3.40
2018-06-29T02:14:39.008Z,3.50
2018-06-29T02:17:07.566Z,4.20
2018-06-29T02:19:36.088Z,3.90
2018-06-29T02:22:04.734Z,3.40
2018-06-29T02:24:33.312Z,4.90
2018-06-29T02:27:01.924Z,5.20
2018-06-29T02:29:30.485Z,5.03
2018-06-29T02:31:59.032Z,5.07
2018-06-29T02:34:27.536Z,4.70
2018-06-29T02:36:56.097Z,3.50
2018-06-29T02:39:24.640Z,3.90
2018-06-29T02:41:53.226Z,3.93
2018-06-29T02:44:21.773Z,4.17
2018-06-29T02:46:50.276Z,3.93
2018-06-29T02:49:18.824Z,4.10
2018-06-29T02:51:47.315Z,4.80
2018-06-29T02:54:15.847Z,7.17
2018-06-29T02:56:44.415Z,5.90
2018-06-29T02:59:12.984Z,5.50
2018-06-29T03:01:41.540Z,5.93
2018-06-29T03:04:10.104Z,4.50
2018-06-29T03:06:38.641Z,5.37
2018-06-29T03:09:08.418Z,7.70
2018-06-29T03:11:37.110Z,9.00
2018-06-29T03:14:05.702Z,6.60
2018-06-29T03:16:34.290Z,7.47
2018-06-29T03:19:02.799Z,6.90
2018-06-29T03:21:31.404Z,8.40
2018-06-29T03:23:59.995Z,8.73
2018-06-29T03:26:28.496Z,8.33
2018-06-29T03:28:57.073Z,7.40
2018-06-29T03:31:25.590Z,8.00
2018-06-29T03:33:54.103Z,7.73
2018-06-29T03:36:22.674Z,8.03
2018-06-29T03:38:51.257Z,7.20
2018-06-29T03:41:19.800Z,8.43
2018-06-29T03:43:48.382Z,8.10
2018-06-29T03:46:16.872Z,8.47
2018-06-29T03:48:45.409Z,8.30
2018-06-29T03:51:13.962Z,7.87
2018-06-29T03:53:42.550Z,7.57
2018-06-29T03:56:11.117Z,9.00
2018-06-29T03:58:39.626Z,7.60
2018-06-29T04:01:08.159Z,8.50
2018-06-29T04:03:36.721Z,6.77
2018-06-29T04:06:05.311Z,6.97
2018-06-29T04:08:33.880Z,6.00
2018-06-29T04:11:02.367Z,7.40
2018-06-29T04:13:30.552Z,7.40
2018-06-29T04:15:59.111Z,7.00
2018-06-29T04:18:27.594Z,6.77
2018-06-29T04:20:56.147Z,8.13
2018-06-29T04:23:24.724Z,6.03
2018-06-29T04:25:53.285Z,6.70
2018-06-29T04:28:21.821Z,6.83
2018-06-29T04:30:50.399Z,6.60
2018-06-29T04:33:18.972Z,5.80
2018-06-29T04:35:47.558Z,5.93
2018-06-29T04:38:16.107Z,6.53
2018-06-29T04:40:44.608Z,6.40
2018-06-29T04:43:13.165Z,7.07
2018-06-29T04:45:41.701Z,7.63
2018-06-29T04:48:10.274Z,6.53
2018-06-29T04:50:38.841Z,7.60
2018-06-29T04:53:07.376Z,8.60
2018-06-29T04:55:35.965Z,8.63
2018-06-29T04:58:04.599Z,8.20
2018-06-29T05:00:33.151Z,8.27
2018-06-29T05:03:01.633Z,8.03
2018-06-29T05:05:30.279Z,7.43
2018-06-29T05:07:58.797Z,7.90
2018-06-29T05:10:27.364Z,7.30
2018-06-29T05:12:55.908Z,7.50
2018-06-29T05:15:24.510Z,7.20
2018-06-29T05:17:53.030Z,7.23
2018-06-29T05:20:21.525Z,7.50
2018-06-29T05:22:50.031Z,8.00
2018-06-29T05:25:18.569Z,8.20
2018-06-29T05:27:47.091Z,6.83
2018-06-29T05:30:15.662Z,6.83
2018-06-29T05:32:44.228Z,8.57
2018-06-29T05:35:12.821Z,7.33
2018-06-29T05:37:41.382Z,8.83
2018-06-29T05:40:09.947Z,8.83
2018-06-29T05:42:38.483Z,7.20
2018-06-29T05:45:07.060Z,8.03
2018-06-29T05:47:35.610Z,8.40
2018-06-29T05:50:04.645Z,8.70
2018-06-29T05:52:33.245Z,9.33
2018-06-29T05:55:01.808Z,8.93
2018-06-29T05:57:30.438Z,8.30
2018-06-29T05:59:58.995Z,9.83
2018-06-29T06:02:27.558Z,8.37
2018-06-29T06:04:56.081Z,7.50
2018-06-29T06:07:24.632Z,7.40
2018-06-29T06:09:53.161Z,7.87
2018-06-29T06:12:21.740Z,7.63
2018-06-29T06:14:50.264Z,8.07
2018-06-29T06:17:18.823Z,8.00
2018-06-29T06:19:58.539Z,7.50
2018-06-29T06:22:27.136Z,5.87
2018-06-29T06:24:55.660Z,9.47
2018-06-29T06:27:24.243Z,8.30
2018-06-29T06:29:52.798Z,8.37
2018-06-29T06:32:21.339Z,7.30
2018-06-29T06:34:49.854Z,6.40
2018-06-29T06:37:18.769Z,7.07
2018-06-29T06:39:47.345Z,7.67
2018-06-29T06:42:15.938Z,6.50
2018-06-29T06:44:44.488Z,6.93
2018-06-29T06:47:13.528Z,7.57
2018-06-29T06:49:42.133Z,6.80
2018-06-29T06:52:10.717Z,6.50
2018-06-29T06:54:39.304Z,6.07
2018-06-29T06:57:07.884Z,7.33
2018-06-29T06:59:36.449Z,6.90
2018-06-29T07:02:05.087Z,6.43
2018-06-29T07:04:33.620Z,5.77
2018-06-29T07:07:02.224Z,6.13
2018-06-29T07:09:30.932Z,5.63
2018-06-29T07:11:59.479Z,5.10
2018-06-29T07:14:27.973Z,5.67
2018-06-29T07:16:56.493Z,4.70
2018-06-29T07:19:25.012Z,4.63
2018-06-29T07:21:53.589Z,4.50
2018-06-29T07:24:22.105Z,4.80
2018-06-29T07:26:50.703Z,3.93
2018-06-29T07:29:19.269Z,3.80
2018-06-29T07:31:47.815Z,4.30
2018-06-29T07:34:16.408Z,4.70
2018-06-29T07:36:44.969Z,4.30
2018-06-29T07:39:13.505Z,3.90
2018-06-29T07:41:42.014Z,3.63
2018-06-29T07:44:10.554Z,3.53
2018-06-29T07:46:39.089Z,3.20
2018-06-29T07:49:07.628Z,2.70
2018-06-29T07:51:36.139Z,3.77
2018-06-29T07:54:04.711Z,4.07
2018-06-29T07:56:33.729Z,3.73
2018-06-29T07:59:02.269Z,3.73
2018-06-29T08:01:30.831Z,3.27
2018-06-29T08:03:59.422Z,3.67
2018-06-29T08:06:27.972Z,3.77
2018-06-29T08:08:56.547Z,3.90
2018-06-29T08:11:25.090Z,4.50
2018-06-29T08:13:53.588Z,3.70
2018-06-29T08:16:22.165Z,4.27
2018-06-29T08:18:50.750Z,5.13
2018-06-29T08:21:19.293Z,4.67
2018-06-29T08:23:47.859Z,3.67
2018-06-29T08:26:24.885Z,5.40
2018-06-29T08:28:53.466Z,4.80
2018-06-29T08:31:22.043Z,5.50
2018-06-29T08:33:50.600Z,6.00
2018-06-29T08:36:19.172Z,5.67
2018-06-29T08:38:47.776Z,6.27
2018-06-29T08:41:16.323Z,5.83
2018-06-29T08:43:46.738Z,5.97
2018-06-29T08:46:15.062Z,5.10
2018-06-29T08:48:43.599Z,6.07
2018-06-29T08:51:12.199Z,6.70
2018-06-29T08:53:40.732Z,7.57
2018-06-29T08:56:09.254Z,6.60
2018-06-29T08:58:37.806Z,6.20
2018-06-29T09:01:06.456Z,4.53
2018-06-29T09:03:35.012Z,5.43
2018-06-29T09:06:03.573Z,5.87
2018-06-29T09:08:32.626Z,5.30
2018-06-29T09:11:01.203Z,5.43
2018-06-29T09:13:29.674Z,6.40
2018-06-29T09:15:58.228Z,6.00
2018-06-29T09:18:26.913Z,6.17
2018-06-29T09:20:55.451Z,7.90
2018-06-29T09:23:24.063Z,6.00
2018-06-29T09:25:52.614Z,5.17
2018-06-29T09:28:21.126Z,5.93
2018-06-29T09:30:49.685Z,6.43
2018-06-29T09:33:18.342Z,4.93
2018-06-29T09:35:46.941Z,5.77
2018-06-29T09:38:15.461Z,6.77
2018-06-29T09:40:44.030Z,6.10
2018-06-29T09:43:12.627Z,6.00
2018-06-29T09:45:41.189Z,5.83
2018-06-29T09:48:09.888Z,6.23
2018-06-29T09:50:38.265Z,5.40
2018-06-29T09:53:06.773Z,6.57
2018-06-29T09:55:35.315Z,6.23
2018-06-29T09:58:03.826Z,6.43
2018-06-29T10:00:33.078Z,5.20
2018-06-29T10:03:01.828Z,5.90
2018-06-29T10:05:30.396Z,6.43
2018-06-29T10:07:58.906Z,5.40
2018-06-29T10:10:27.424Z,5.43
2018-06-29T10:12:55.911Z,6.00
2018-06-29T10:15:24.507Z,5.30
2018-06-29T10:17:53.037Z,5.83
2018-06-29T10:20:21.588Z,7.10
2018-06-29T10:22:50.119Z,5.70
2018-06-29T10:25:18.735Z,5.37
2018-06-29T10:27:47.296Z,5.50
2018-06-29T10:30:15.827Z,6.07
2018-06-29T10:32:44.373Z,5.10
2018-06-29T10:35:12.971Z,5.20
2018-06-29T10:37:41.557Z,5.10
2018-06-29T10:40:10.123Z,5.80
2018-06-29T10:42:38.683Z,5.90
2018-06-29T10:45:07.281Z,5.10
2018-06-29T10:47:35.819Z,5.40
2018-06-29T10:50:04.564Z,4.23
2018-06-29T10:52:33.092Z,4.23
2018-06-29T10:55:01.638Z,3.90
2018-06-29T10:57:30.227Z,4.30
2018-06-29T10:59:58.786Z,3.20
2018-06-29T11:02:27.935Z,4.40
2018-06-29T11:04:56.463Z,3.60
2018-06-29T11:07:25.033Z,2.73
2018-06-29T11:09:53.802Z,3.00
2018-06-29T11:12:22.400Z,3.53
2018-06-29T11:14:50.916Z,4.33
2018-06-29T11:17:19.404Z,2.80
2018-06-29T11:19:47.928Z,3.77
2018-06-29T11:22:16.426Z,3.00
2018-06-29T11:24:44.977Z,3.03
2018-06-29T11:27:13.543Z,3.20
2018-06-29T11:29:42.096Z,4.93
2018-06-29T11:32:10.655Z,4.90
2018-06-29T11:34:39.135Z,4.30
2018-06-29T11:37:07.675Z,4.80
2018-06-29T11:39:36.229Z,4.30
2018-06-29T11:42:04.831Z,4.37
2018-06-29T11:44:33.424Z,5.03
2018-06-29T11:47:01.946Z,4.57
2018-06-29T11:49:30.472Z,4.70
2018-06-29T11:51:59.042Z,5.53
2018-06-29T11:54:27.565Z,4.93
2018-06-29T11:56:55.746Z,4.50
2018-06-29T11:59:24.259Z,4.20
2018-06-29T12:01:53.791Z,6.50
2018-06-29T12:04:22.313Z,5.13
2018-06-29T12:06:50.816Z,5.40
2018-06-29T12:09:20.371Z,5.33
2018-06-29T12:11:48.854Z,6.60
2018-06-29T12:14:17.389Z,5.87
2018-06-29T12:16:45.915Z,4.83
2018-06-29T12:19:14.468Z,5.60
2018-06-29T12:21:42.970Z,5.67
2018-06-29T12:24:12.347Z,4.20
2018-06-29T12:26:40.889Z,4.83
2018-06-29T12:29:10.252Z,4.43
2018-06-29T12:31:39.145Z,5.37
2018-06-29T12:34:08.611Z,4.70
2018-06-29T12:36:38.491Z,4.43
2018-06-29T12:39:08.868Z,4.53
2018-06-29T12:41:37.892Z,4.80
2018-06-29T12:44:06.692Z,5.70
2018-06-29T12:46:35.584Z,4.43
2018-06-29T12:49:04.286Z,4.33
2018-06-29T12:51:34.195Z,5.60
2018-06-29T12:54:02.720Z,3.87
2018-06-29T12:56:31.372Z,4.67
2018-06-29T12:58:59.909Z,4.80
2018-06-29T13:01:28.552Z,5.10
2018-06-29T13:03:57.062Z,5.20
2018-06-29T13:06:25.562Z,4.17
2018-06-29T13:08:54.976Z,5.30
2018-06-29T13:11:23.855Z,4.20
2018-06-29T13:13:52.399Z,4.00
2018-06-29T13:16:20.915Z,4.83
2018-06-29T13:18:49.447Z,5.83
2018-06-29T13:21:17.956Z,5.30
2018-06-29T13:23:46.463Z,5.33
2018-06-29T13:26:15.001Z,4.70
2018-06-29T13:28:43.504Z,5.43
2018-06-29T13:31:12.048Z,5.83
2018-06-29T13:33:40.748Z,6.10
2018-06-29T13:36:09.237Z,6.70
2018-06-29T13:38:37.812Z,4.57
2018-06-29T13:41:06.461Z,5.40
2018-06-29T13:43:35.025Z,4.97
2018-06-29T13:46:04.514Z,5.60
2018-06-29T13:48:33.037Z,5.70
2018-06-29T13:51:01.605Z,6.40
2018-06-29T13:53:30.180Z,5.80
2018-06-29T13:55:58.728Z,6.63
2018-06-29T13:58:27.312Z,6.27
2018-06-29T14:00:55.978Z,7.30
2018-06-29T14:03:24.556Z,8.87
2018-06-29T14:05:53.075Z,8.40
2018-06-29T14:08:21.632Z,9.43
2018-06-29T14:10:50.271Z,10.07
2018-06-29T14:13:18.816Z,9.07
2018-06-29T14:15:47.397Z,9.57
2018-06-29T14:18:15.948Z,10.27
2018-06-29T14:20:44.468Z,10.07
2018-06-29T14:23:12.984Z,9.03
2018-06-29T14:25:41.541Z,9.60
2018-06-29T14:28:10.042Z,7.97
2018-06-29T14:30:38.589Z,10.50
2018-06-29T14:33:07.195Z,10.73
2018-06-29T14:35:35.774Z,10.73
2018-06-29T14:38:04.441Z,10.80
2018-06-29T14:40:33.087Z,11.47
2018-06-29T14:43:01.661Z,11.37
2018-06-29T14:45:30.236Z,15.10
2018-06-29T14:47:58.792Z,11.00
2018-06-29T14:50:27.324Z,12.20
2018-06-29T14:52:55.943Z,12.43
2018-06-29T14:55:24.517Z,13.00
2018-06-29T14:57:53.111Z,12.80
2018-06-29T15:00:21.710Z,13.83
2018-06-29T15:02:50.291Z,14.53
2018-06-29T15:05:18.848Z,13.67
2018-06-29T15:07:47.380Z,12.70
2018-06-29T15:10:15.939Z,11.50
2018-06-29T15:12:44.446Z,13.73
2018-06-29T15:15:13.032Z,11.97
2018-06-29T15:17:41.648Z,10.10
2018-06-29T15:20:10.204Z,11.00
2018-06-29T15:22:39.068Z,12.47
2018-06-29T15:25:07.781Z,11.60
2018-06-29T15:27:36.402Z,12.60
2018-06-29T15:30:06.047Z,10.40
2018-06-29T15:32:34.818Z,10.40
2018-06-29T15:35:03.436Z,9.87
2018-06-29T15:37:32.012Z,9.97
2018-06-29T15:40:00.583Z,8.97
2018-06-29T15:42:29.252Z,10.10
2018-06-29T15:44:57.820Z,9.37
2018-06-29T15:47:26.451Z,9.10
2018-06-29T15:49:54.987Z,9.50
2018-06-29T15:52:23.576Z,9.20
2018-06-29T15:54:52.111Z,9.73
2018-06-29T15:57:20.679Z,9.20
2018-06-29T15:59:49.212Z,9.30
2018-06-29T16:02:17.800Z,9.20
2018-06-29T16:04:46.386Z,9.00
2018-06-29T16:07:14.968Z,9.57
2018-06-29T16:09:43.507Z,8.50
2018-06-29T16:12:12.005Z,9.67
2018-06-29T16:14:40.620Z,8.63
2018-06-29T16:17:09.988Z,8.83
2018-06-29T16:19:38.536Z,7.80
2018-06-29T16:22:07.116Z,8.80
2018-06-29T16:24:35.784Z,7.17
2018-06-29T16:27:04.391Z,6.13
2018-06-29T16:29:32.968Z,5.90
2018-06-29T16:32:01.505Z,7.10
2018-06-29T16:34:30.055Z,6.70
2018-06-29T16:36:58.656Z,7.97
2018-06-29T16:39:27.182Z,7.73
2018-06-29T16:41:55.717Z,6.83
2018-06-29T16:44:24.232Z,7.87
2018-06-29T16:46:52.762Z,8.80
2018-06-29T16:49:21.334Z,8.30
2018-06-29T16:51:49.850Z,8.93
2018-06-29T16:54:18.385Z,8.60
2018-06-29T16:56:46.930Z,9.10
2018-06-29T16:59:15.149Z,7.87
2018-06-29T17:01:43.784Z,7.97
2018-06-29T17:04:12.335Z,7.50
2018-06-29T17:06:40.909Z,7.00
2018-06-29T17:09:10.103Z,7.87
2018-06-29T17:11:38.840Z,7.87
2018-06-29T17:14:07.560Z,8.50
2018-06-29T17:16:36.113Z,7.40
2018-06-29T17:19:04.691Z,7.67
2018-06-29T17:21:33.263Z,6.90
2018-06-29T17:24:01.831Z,6.60
2018-06-29T17:26:30.445Z,6.90
2018-06-29T17:28:59.055Z,8.13
2018-06-29T17:31:27.599Z,7.97
2018-06-29T17:33:56.178Z,8.70
2018-06-29T17:36:24.734Z,8.87
2018-06-29T17:38:53.245Z,8.57
2018-06-29T17:41:21.820Z,8.07
2018-06-29T17:43:50.375Z,8.53
2018-06-29T17:46:18.954Z,8.83
2018-06-29T17:48:47.551Z,9.10
2018-06-29T17:51:16.057Z,7.80
2018-06-29T17:53:44.557Z,8.27
2018-06-29T17:56:13.139Z,8.60
2018-06-29T17:58:41.699Z,8.60
2018-06-29T18:01:10.260Z,7.73
2018-06-29T18:03:38.829Z,8.83
2018-06-29T18:06:07.394Z,8.83
2018-06-29T18:08:36.029Z,7.93
2018-06-29T18:11:04.602Z,8.70
2018-06-29T18:13:33.930Z,9.00
2018-06-29T18:16:02.594Z,9.50
2018-06-29T18:18:31.150Z,8.63
2018-06-29T18:20:59.896Z,8.97
2018-06-29T18:23:28.755Z,9.33
2018-06-29T18:25:57.290Z,8.80
2018-06-29T18:28:26.168Z,7.50
2018-06-29T18:30:54.743Z,8.47
2018-06-29T18:33:23.280Z,8.57
2018-06-29T18:35:51.846Z,9.03
2018-06-29T18:38:20.403Z,8.57
2018-06-29T18:40:48.940Z,10.33
2018-06-29T18:43:17.514Z,9.10
2018-06-29T18:45:46.115Z,9.00
2018-06-29T18:48:14.672Z,8.77
2018-06-29T18:50:43.190Z,8.07
2018-06-29T18:53:11.679Z,8.40
2018-06-29T18:55:40.235Z,8.27
2018-06-29T18:58:08.770Z,8.40
2018-06-29T19:00:37.319Z,8.63
2018-06-29T19:03:05.908Z,9.10
2018-06-29T19:05:34.468Z,8.90
2018-06-29T19:08:03.096Z,8.57
2018-06-29T19:10:31.948Z,8.63
2018-06-29T19:13:00.435Z,9.43
2018-06-29T19:15:29.038Z,7.60
2018-06-29T19:17:57.205Z,9.80
2018-06-29T19:20:26.601Z,10.50
2018-06-29T19:22:55.301Z,9.10
2018-06-29T19:25:23.880Z,8.67
2018-06-29T19:27:52.609Z,9.77
2018-06-29T19:30:21.122Z,9.47
2018-06-29T19:32:49.694Z,9.00
2018-06-29T19:35:18.226Z,9.53
2018-06-29T19:37:47.266Z,9.70
2018-06-29T19:40:15.830Z,9.83
2018-06-29T19:42:44.335Z,8.80
2018-06-29T19:45:12.903Z,9.60
2018-06-29T19:47:41.429Z,10.77
2018-06-29T19:50:10.085Z,10.23
2018-06-29T19:52:38.656Z,10.73
2018-06-29T19:55:07.242Z,9.80
2018-06-29T19:57:35.753Z,9.80
2018-06-29T20:00:04.958Z,9.63
2018-06-29T20:02:33.531Z,10.67
2018-06-29T20:05:02.103Z,9.77
2018-06-29T20:07:30.631Z,9.13
2018-06-29T20:09:59.136Z,9.13
2018-06-29T20:12:27.690Z,10.47
2018-06-29T20:14:56.263Z,10.13
2018-06-29T20:17:26.291Z,11.20
2018-06-29T20:19:56.399Z,10.30
2018-06-29T20:22:27.272Z,9.93
2018-06-29T20:25:00.136Z,10.83
2018-06-29T20:27:28.809Z,8.97
2018-06-29T20:29:57.354Z,8.40
2018-06-29T20:32:25.977Z,10.07
2018-06-29T20:34:54.488Z,11.20
2018-06-29T20:37:23.209Z,10.80
2018-06-29T20:39:51.801Z,11.50
2018-06-29T20:42:20.394Z,11.50
2018-06-29T20:44:48.932Z,10.90
2018-06-29T20:47:17.462Z,11.13
2018-06-29T20:49:46.044Z,12.00
2018-06-29T20:52:14.627Z,14.80
2018-06-29T20:54:43.187Z,12.63
2018-06-29T20:57:11.752Z,11.53
2018-06-29T20:59:40.348Z,11.40
2018-06-29T21:02:08.913Z,10.20
2018-06-29T21:04:37.440Z,11.83
2018-06-29T21:07:06.295Z,11.90
2018-06-29T21:09:34.925Z,11.97
2018-06-29T21:12:03.543Z,13.70
2018-06-29T21:14:32.103Z,12.50
2018-06-29T21:17:00.684Z,12.00
2018-06-29T21:19:29.248Z,11.10
2018-06-29T21:21:57.886Z,10.93
2018-06-29T21:24:26.444Z,12.00
2018-06-29T21:26:55.008Z,10.87
2018-06-29T21:29:23.219Z,9.83
2018-06-29T21:31:51.715Z,10.77
2018-06-29T21:34:20.291Z,10.70
2018-06-29T21:36:48.798Z,10.00
2018-06-29T21:39:17.365Z,10.43
2018-06-29T21:41:45.902Z,10.17
2018-06-29T21:44:14.142Z,10.63
2018-06-29T21:46:42.675Z,10.83
2018-06-29T21:49:11.248Z,12.43
2018-06-29T21:51:39.805Z,12.23
2018-06-29T21:54:08.407Z,12.00
2018-06-29T21:56:37.050Z,10.00
2018-06-29T21:59:05.692Z,11.30
2018-06-29T22:01:34.310Z,11.60
2018-06-29T22:04:02.883Z,11.43
2018-06-29T22:06:37.908Z,13.10
2018-06-29T22:09:08.108Z,13.23
2018-06-29T22:11:36.709Z,12.53
2018-06-29T22:14:05.331Z,12.90
2018-06-29T22:16:33.904Z,13.43
2018-06-29T22:19:02.497Z,12.63
2018-06-29T22:21:31.061Z,12.63
2018-06-29T22:23:59.658Z,11.43
2018-06-29T22:26:28.191Z,11.43
2018-06-29T22:28:56.739Z,11.33
2018-06-29T22:31:25.256Z,14.10
2018-06-29T22:33:53.830Z,12.63
2018-06-29T22:36:22.338Z,12.70
2018-06-29T22:38:50.914Z,12.90
2018-06-29T22:41:19.435Z,14.20
2018-06-29T22:43:47.960Z,12.57
2018-06-29T22:46:16.495Z,14.20
2018-06-29T22:48:45.054Z,13.40
2018-06-29T22:51:13.608Z,12.77
2018-06-29T22:53:42.204Z,12.47
2018-06-29T22:56:10.720Z,12.43
2018-06-29T22:58:39.284Z,11.77
2018-06-29T23:01:07.961Z,12.57
2018-06-29T23:03:55.640Z,14.30
2018-06-29T23:06:25.416Z,12.73
2018-06-29T23:08:53.999Z,11.77
2018-06-29T23:11:22.539Z,12.50
2018-06-29T23:13:51.349Z,11.00
2018-06-29T23:16:19.882Z,10.47
2018-06-29T23:18:48.449Z,10.23
2018-06-29T23:21:16.983Z,10.03
2018-06-29T23:23:45.582Z,10.90
2018-06-29T23:26:14.117Z,10.30
2018-06-29T23:28:42.683Z,11.40
2018-06-29T23:31:11.225Z,11.90
2018-06-29T23:33:39.820Z,12.13
2018-06-29T23:36:08.363Z,11.90
2018-06-29T23:38:36.843Z,11.37
2018-06-29T23:41:05.462Z,11.30
2018-06-29T23:43:34.050Z,10.00
2018-06-29T23:46:02.255Z,7.57
2018-06-29T23:48:30.763Z,7.97
2018-06-29T23:50:59.343Z,8.57
2018-06-29T23:53:27.837Z,8.57
2018-06-29T23:55:56.394Z,10.10
2018-06-29T23:58:24.939Z,10.17
